Weather at Nanga Labang Airstrip

Public forecast

Using degrees Celsius for public forecast. Weather courtesy of forecast.io.

Closest aviation weather report (METAR) to Nanga Labang Airstrip

Closest report is Simanggang Airport, 60.7 nm (112.5 km) N. Retrieved 2021/10/23 03:00 UTC (47 minutes ago):

WBGY 230300Z 13003KT 050V190 9999 FEW018 31/25 Q1013

Closest aviation forecast (TAF) to Nanga Labang Airstrip

Closest forecast is Kuching International Airport, 108.7 nm (201.3 km) NW. Retrieved 2021-10-23 00:18 UTC (3 hours ago):

TAF WBGG 222300Z 2300/2400 15005KT 9999 FEW020